createdAt,value
2023-02-17T00:00:05.873Z,22.73
2023-02-17T00:05:47.888Z,24.88
2023-02-17T00:11:09.158Z,23.02
2023-02-17T00:16:30.251Z,27.55
2023-02-17T00:21:52.986Z,24.70
2023-02-17T00:27:13.972Z,28.83
2023-02-17T00:32:34.740Z,27.15
2023-02-17T00:37:55.579Z,25.23
2023-02-17T00:43:16.485Z,26.70
2023-02-17T00:48:38.075Z,25.38
2023-02-17T00:53:59.183Z,26.92
2023-02-17T00:59:19.926Z,25.38
2023-02-17T01:04:41.276Z,29.70
2023-02-17T01:10:02.369Z,25.42
2023-02-17T01:15:23.340Z,26.95
2023-02-17T01:20:44.066Z,27.27
2023-02-17T01:26:05.284Z,25.15
2023-02-17T01:31:28.110Z,25.42
2023-02-17T01:36:49.220Z,24.27
2023-02-17T01:42:17.148Z,25.52
2023-02-17T01:47:38.310Z,27.10
2023-02-17T01:52:59.055Z,25.27
2023-02-17T01:58:20.313Z,28.33
2023-02-17T02:03:41.344Z,27.83
2023-02-17T02:09:11.296Z,26.15
2023-02-17T02:14:32.009Z,24.27
2023-02-17T02:20:17.499Z,22.77
2023-02-17T02:26:20.003Z,24.10
2023-02-17T02:32:05.735Z,26.67
2023-02-17T02:37:29.470Z,23.55
2023-02-17T02:42:50.755Z,25.73
2023-02-17T02:48:11.443Z,24.60
2023-02-17T02:53:51.141Z,24.73
2023-02-17T02:59:18.744Z,24.90
2023-02-17T03:04:54.441Z,26.38
2023-02-17T03:10:15.615Z,25.60
2023-02-17T03:15:36.790Z,26.55
2023-02-17T03:20:59.035Z,30.15
2023-02-17T03:26:20.062Z,25.20
2023-02-17T03:31:41.330Z,26.67
2023-02-17T03:37:02.637Z,22.30
2023-02-17T03:42:23.979Z,25.38
2023-02-17T03:47:44.831Z,21.65
2023-02-17T03:53:06.005Z,22.83
2023-02-17T03:58:26.714Z,26.15
2023-02-17T04:03:47.597Z,25.08
2023-02-17T04:09:08.436Z,22.55
2023-02-17T04:14:29.380Z,21.77
2023-02-17T04:19:50.068Z,26.48
2023-02-17T04:25:11.334Z,21.52
2023-02-17T04:30:32.221Z,20.88
2023-02-17T04:35:59.509Z,18.75
2023-02-17T04:41:21.004Z,18.98
2023-02-17T04:46:41.809Z,17.63
2023-02-17T04:52:03.036Z,18.10
2023-02-17T04:57:24.283Z,16.08
2023-02-17T05:02:45.306Z,14.73
2023-02-17T05:08:06.519Z,11.60
2023-02-17T05:13:28.273Z,11.43
2023-02-17T05:18:49.701Z,12.82
2023-02-17T05:24:13.307Z,15.80
2023-02-17T05:29:34.524Z,11.52
2023-02-17T05:34:55.873Z,15.90
2023-02-17T05:40:17.104Z,16.13
2023-02-17T05:45:38.286Z,11.75
2023-02-17T05:50:59.139Z,10.23
2023-02-17T05:56:20.281Z,13.07
2023-02-17T06:01:41.553Z,13.38
2023-02-17T06:07:03.375Z,10.43
2023-02-17T06:12:24.778Z,12.85
2023-02-17T06:17:46.431Z,11.30
2023-02-17T06:23:07.326Z,12.65
2023-02-17T06:28:28.456Z,10.85
2023-02-17T06:33:49.736Z,12.63
2023-02-17T06:39:10.786Z,11.52
2023-02-17T06:44:32.000Z,13.18
2023-02-17T06:49:52.713Z,11.70
2023-02-17T06:55:14.483Z,9.45
2023-02-17T07:00:36.428Z,12.98
2023-02-17T07:05:58.734Z,10.00
2023-02-17T07:11:20.246Z,10.27
2023-02-17T07:16:41.590Z,10.73
2023-02-17T07:22:02.991Z,7.88
2023-02-17T07:27:24.606Z,8.20
2023-02-17T07:32:46.393Z,9.80
2023-02-17T07:38:08.607Z,6.38
2023-02-17T07:43:29.749Z,8.68
2023-02-17T07:48:51.393Z,8.68
2023-02-17T07:54:13.664Z,6.45
2023-02-17T07:59:35.278Z,7.57
2023-02-17T08:04:56.355Z,8.60
2023-02-17T08:10:35.787Z,6.97
2023-02-17T08:15:56.899Z,7.75
2023-02-17T08:21:17.826Z,9.38
2023-02-17T08:26:39.187Z,9.27
2023-02-17T08:32:00.382Z,10.82
2023-02-17T08:37:21.731Z,9.32
2023-02-17T08:42:42.723Z,10.73
2023-02-17T08:48:04.739Z,7.80
2023-02-17T08:53:25.728Z,11.25
2023-02-17T08:58:46.894Z,8.52
2023-02-17T09:04:08.827Z,8.43
2023-02-17T09:09:31.516Z,9.15
2023-02-17T09:14:53.121Z,8.27
2023-02-17T09:20:24.266Z,7.53
2023-02-17T09:25:45.864Z,10.63
2023-02-17T09:31:21.245Z,9.65
2023-02-17T09:36:42.813Z,7.07
2023-02-17T09:42:04.346Z,5.88
2023-02-17T09:47:27.357Z,7.55
2023-02-17T09:52:54.304Z,8.57
2023-02-17T09:58:20.822Z,7.35
2023-02-17T10:04:09.280Z,6.72
2023-02-17T10:09:49.541Z,9.90
2023-02-17T10:15:17.843Z,8.18
2023-02-17T10:20:43.445Z,9.10
2023-02-17T10:26:26.771Z,6.07
2023-02-17T10:31:54.827Z,8.43
2023-02-17T10:37:47.484Z,6.28
2023-02-17T10:43:09.280Z,7.45
2023-02-17T10:48:39.157Z,4.15
2023-02-17T10:54:08.179Z,6.78
2023-02-17T10:59:32.319Z,4.90
2023-02-17T11:04:56.790Z,5.10
2023-02-17T11:10:26.003Z,4.95
2023-02-17T11:15:47.054Z,4.85
2023-02-17T11:21:10.334Z,4.72
2023-02-17T11:26:33.320Z,3.25
2023-02-17T11:31:59.013Z,4.10
2023-02-17T11:37:22.208Z,4.45
2023-02-17T11:42:43.325Z,4.82
2023-02-17T11:48:13.021Z,3.63
2023-02-17T11:53:49.407Z,6.07
2023-02-17T11:59:17.521Z,4.65
2023-02-17T12:04:50.616Z,4.90
2023-02-17T12:10:33.614Z,4.65
2023-02-17T12:16:22.494Z,2.58
2023-02-17T12:21:49.582Z,5.32
2023-02-17T12:27:22.548Z,7.13
2023-02-17T12:32:56.709Z,3.97
2023-02-17T12:38:18.276Z,3.35
2023-02-17T12:44:03.576Z,3.70
2023-02-17T12:49:43.201Z,3.22
2023-02-17T12:55:20.916Z,4.25
2023-02-17T13:00:44.454Z,3.55
2023-02-17T13:06:32.620Z,3.08
2023-02-17T13:11:53.618Z,5.15
2023-02-17T13:17:23.823Z,2.88
2023-02-17T13:22:45.124Z,3.28
2023-02-17T13:28:34.868Z,4.30
2023-02-17T13:33:57.578Z,6.15
2023-02-17T13:39:27.847Z,3.22
2023-02-17T13:44:50.348Z,3.22
2023-02-17T13:50:37.946Z,2.63
2023-02-17T13:56:01.273Z,3.70
2023-02-17T14:01:27.257Z,3.78
2023-02-17T14:06:49.891Z,2.92
2023-02-17T14:12:19.743Z,4.28
2023-02-17T14:17:40.673Z,2.83
2023-02-17T14:23:06.781Z,2.28
2023-02-17T14:28:28.532Z,4.00
2023-02-17T14:34:02.442Z,3.28
2023-02-17T14:39:23.439Z,2.17
2023-02-17T14:44:44.797Z,1.65
2023-02-17T14:50:07.721Z,1.75
2023-02-17T14:55:35.880Z,3.30
2023-02-17T15:00:56.994Z,2.33
2023-02-17T15:06:39.071Z,4.80
2023-02-17T15:12:00.538Z,3.00
2023-02-17T15:17:21.608Z,2.67
2023-02-17T15:22:42.387Z,1.88
2023-02-17T15:28:04.407Z,1.58
2023-02-17T15:33:25.510Z,1.52
2023-02-17T15:38:46.389Z,2.35
2023-02-17T15:44:12.620Z,1.90
2023-02-17T15:49:33.620Z,2.50
2023-02-17T15:54:54.388Z,1.77
2023-02-17T16:00:23.601Z,2.47
2023-02-17T16:05:44.552Z,2.50
2023-02-17T16:11:05.656Z,2.72
2023-02-17T16:16:34.418Z,2.25
2023-02-17T16:21:55.064Z,6.55
2023-02-17T16:27:16.651Z,3.65
2023-02-17T16:32:37.728Z,2.65
2023-02-17T16:38:07.525Z,2.53
2023-02-17T16:43:30.540Z,1.67
2023-02-17T16:48:51.581Z,2.00
2023-02-17T16:54:12.586Z,2.17
2023-02-17T16:59:33.644Z,4.03
2023-02-17T17:04:54.657Z,1.98
2023-02-17T17:10:21.508Z,1.88
2023-02-17T17:15:45.570Z,2.47
2023-02-17T17:21:13.389Z,2.03
2023-02-17T17:26:44.307Z,3.83
2023-02-17T17:32:05.673Z,4.63
2023-02-17T17:37:26.402Z,2.63
2023-02-17T17:42:47.554Z,1.85
2023-02-17T17:48:12.691Z,1.33
2023-02-17T17:53:33.404Z,1.13
2023-02-17T17:58:54.637Z,1.80
2023-02-17T18:04:15.501Z,3.25
2023-02-17T18:09:36.631Z,2.70
2023-02-17T18:14:57.336Z,1.75
2023-02-17T18:20:18.195Z,0.90
2023-02-17T18:25:39.099Z,1.67
2023-02-17T18:31:00.251Z,1.92
2023-02-17T18:36:23.240Z,1.58
2023-02-17T18:41:44.559Z,1.45
2023-02-17T18:47:05.558Z,2.38
2023-02-17T18:52:26.428Z,1.90
2023-02-17T18:57:47.500Z,2.00
2023-02-17T19:03:08.436Z,2.17
2023-02-17T19:08:29.080Z,3.15
2023-02-17T19:13:49.949Z,3.03
2023-02-17T19:19:10.739Z,1.58
2023-02-17T19:24:31.459Z,1.90
2023-02-17T19:29:54.030Z,2.25
2023-02-17T19:35:15.296Z,1.65
2023-02-17T19:40:36.779Z,2.97
2023-02-17T19:45:58.588Z,1.85
2023-02-17T19:51:19.621Z,1.60
2023-02-17T19:56:40.591Z,1.25
2023-02-17T20:02:01.352Z,2.55
2023-02-17T20:07:22.500Z,4.72
2023-02-17T20:12:43.283Z,1.60
2023-02-17T20:18:04.159Z,1.50
2023-02-17T20:23:25.272Z,2.50
2023-02-17T20:28:46.195Z,4.15
2023-02-17T20:34:08.964Z,1.35
2023-02-17T20:39:29.946Z,1.20
2023-02-17T20:44:51.208Z,1.60
2023-02-17T20:50:16.068Z,1.48
2023-02-17T20:55:37.133Z,2.55
2023-02-17T21:00:58.120Z,1.20
2023-02-17T21:06:32.765Z,1.10
2023-02-17T21:11:53.784Z,0.90
2023-02-17T21:17:14.667Z,1.30
2023-02-17T21:22:35.896Z,1.08
2023-02-17T21:27:56.652Z,0.80
2023-02-17T21:33:17.350Z,0.73
2023-02-17T21:38:37.993Z,1.75
2023-02-17T21:44:18.243Z,0.82
2023-02-17T21:49:39.316Z,1.65
2023-02-17T21:55:01.196Z,1.13
2023-02-17T22:00:22.033Z,1.00
2023-02-17T22:05:43.033Z,0.90
2023-02-17T22:11:03.674Z,1.30
2023-02-17T22:16:24.946Z,0.60
2023-02-17T22:21:45.807Z,1.70
2023-02-17T22:27:06.999Z,0.82
2023-02-17T22:32:28.218Z,1.30
2023-02-17T22:37:49.888Z,1.02
2023-02-17T22:43:12.509Z,1.65
2023-02-17T22:48:34.356Z,2.65
2023-02-17T22:53:55.807Z,1.80
2023-02-17T22:59:16.566Z,5.10
2023-02-17T23:04:37.429Z,5.05
2023-02-17T23:09:58.300Z,4.75
2023-02-17T23:15:19.295Z,0.80
2023-02-17T23:20:42.052Z,0.93
2023-02-17T23:26:02.826Z,1.20
2023-02-17T23:31:23.621Z,2.83
2023-02-17T23:36:45.318Z,2.53
2023-02-17T23:42:06.655Z,2.55
2023-02-17T23:47:27.395Z,1.25
2023-02-17T23:52:48.172Z,1.10
2023-02-17T23:58:08.901Z,1.42
